sensor_id;sensor_type;location;lat;lon;timestamp;pressure;altitude;pressure_sealevel;temperature;humidity
47374;BME280;33123;50.118;10.272;2023-03-16T00:01:44;98168.47;;;0.40;70.56
47374;BME280;33123;50.118;10.272;2023-03-16T00:04:12;98163.28;;;0.40;70.75
47374;BME280;33123;50.118;10.272;2023-03-16T00:06:38;98162.63;;;0.38;71.57
47374;BME280;33123;50.118;10.272;2023-03-16T00:09:05;98157.44;;;0.38;70.76
47374;BME280;33123;50.118;10.272;2023-03-16T00:11:31;98153.25;;;0.37;70.94
47374;BME280;33123;50.118;10.272;2023-03-16T00:13:58;98155.22;;;0.35;70.97
47374;BME280;33123;50.118;10.272;2023-03-16T00:16:24;98160.03;;;0.38;71.36
47374;BME280;33123;50.118;10.272;2023-03-16T00:18:51;98157.63;;;0.37;71.68
47374;BME280;33123;50.118;10.272;2023-03-16T00:21:19;98155.84;;;0.37;70.92
47374;BME280;33123;50.118;10.272;2023-03-16T00:23:46;98145.47;;;0.37;71.15
47374;BME280;33123;50.118;10.272;2023-03-16T00:26:12;98144.66;;;0.37;71.87
47374;BME280;33123;50.118;10.272;2023-03-16T00:28:39;98139.66;;;0.35;71.20
47374;BME280;33123;50.118;10.272;2023-03-16T00:31:09;98137.88;;;0.36;70.85
47374;BME280;33123;50.118;10.272;2023-03-16T00:33:39;98099.25;;;0.10;71.38
47374;BME280;33123;50.118;10.272;2023-03-16T00:36:07;98154.03;;;0.38;71.85
47374;BME280;33123;50.118;10.272;2023-03-16T00:38:38;98144.84;;;0.35;71.72
47374;BME280;33123;50.118;10.272;2023-03-16T00:41:10;98152.78;;;0.34;70.60
47374;BME280;33123;50.118;10.272;2023-03-16T00:43:39;98156.50;;;0.31;69.75
47374;BME280;33123;50.118;10.272;2023-03-16T00:46:07;98152.50;;;0.29;70.45
47374;BME280;33123;50.118;10.272;2023-03-16T00:48:35;98163.00;;;0.27;70.28
47374;BME280;33123;50.118;10.272;2023-03-16T00:51:02;98156.22;;;0.26;71.12
47374;BME280;33123;50.118;10.272;2023-03-16T00:53:29;98148.59;;;0.24;71.26
47374;BME280;33123;50.118;10.272;2023-03-16T00:55:57;98152.63;;;0.27;71.33
47374;BME280;33123;50.118;10.272;2023-03-16T00:58:24;98153.63;;;0.26;70.34
47374;BME280;33123;50.118;10.272;2023-03-16T01:00:51;98147.44;;;0.27;70.68
47374;BME280;33123;50.118;10.272;2023-03-16T01:03:19;98151.03;;;0.26;71.48
47374;BME280;33123;50.118;10.272;2023-03-16T01:05:46;98151.69;;;0.28;71.67
47374;BME280;33123;50.118;10.272;2023-03-16T01:08:13;98146.31;;;0.30;72.04
47374;BME280;33123;50.118;10.272;2023-03-16T01:10:40;98146.16;;;0.31;71.37
47374;BME280;33123;50.118;10.272;2023-03-16T01:13:11;98146.78;;;0.33;70.93
47374;BME280;33123;50.118;10.272;2023-03-16T01:15:38;98139.16;;;0.32;70.58
47374;BME280;33123;50.118;10.272;2023-03-16T01:18:04;98143.72;;;0.30;71.09
47374;BME280;33123;50.118;10.272;2023-03-16T01:20:31;98148.09;;;0.29;71.25
47374;BME280;33123;50.118;10.272;2023-03-16T01:22:58;98137.75;;;0.29;70.95
47374;BME280;33123;50.118;10.272;2023-03-16T01:25:25;98145.50;;;0.29;71.37
47374;BME280;33123;50.118;10.272;2023-03-16T01:27:52;98140.47;;;0.28;71.63
47374;BME280;33123;50.118;10.272;2023-03-16T01:30:20;98132.88;;;0.26;70.67
47374;BME280;33123;50.118;10.272;2023-03-16T01:32:46;98139.03;;;0.25;70.51
47374;BME280;33123;50.118;10.272;2023-03-16T01:35:13;98135.81;;;0.23;70.92
47374;BME280;33123;50.118;10.272;2023-03-16T01:37:40;98135.34;;;0.19;72.45
47374;BME280;33123;50.118;10.272;2023-03-16T01:40:08;98133.56;;;0.20;71.86
47374;BME280;33123;50.118;10.272;2023-03-16T01:42:47;98135.97;;;0.21;71.37
47374;BME280;33123;50.118;10.272;2023-03-16T01:48:20;98128.69;;;0.25;71.53
47374;BME280;33123;50.118;10.272;2023-03-16T01:50:49;98135.81;;;0.23;71.03
47374;BME280;33123;50.118;10.272;2023-03-16T01:53:17;98133.38;;;0.21;70.12
47374;BME280;33123;50.118;10.272;2023-03-16T01:55:44;98136.97;;;0.20;71.12
47374;BME280;33123;50.118;10.272;2023-03-16T01:58:11;98139.72;;;0.19;70.59
47374;BME280;33123;50.118;10.272;2023-03-16T02:00:39;98146.88;;;0.17;70.81
47374;BME280;33123;50.118;10.272;2023-03-16T02:03:09;98134.25;;;0.14;70.89
47374;BME280;33123;50.118;10.272;2023-03-16T02:05:41;98137.81;;;0.13;71.41
47374;BME280;33123;50.118;10.272;2023-03-16T02:08:10;98136.34;;;0.10;71.93
47374;BME280;33123;50.118;10.272;2023-03-16T02:10:37;98132.81;;;0.11;72.59
47374;BME280;33123;50.118;10.272;2023-03-16T02:13:05;98126.47;;;0.14;71.99
47374;BME280;33123;50.118;10.272;2023-03-16T02:15:32;98125.66;;;0.13;71.06
47374;BME280;33123;50.118;10.272;2023-03-16T02:18:00;98109.13;;;0.14;71.04
47374;BME280;33123;50.118;10.272;2023-03-16T02:20:34;98112.53;;;0.15;71.29
47374;BME280;33123;50.118;10.272;2023-03-16T02:23:04;98112.53;;;0.15;70.84
47374;BME280;33123;50.118;10.272;2023-03-16T02:25:39;98109.31;;;0.13;70.46
47374;BME280;33123;50.118;10.272;2023-03-16T02:28:14;98104.44;;;0.10;70.15
47374;BME280;33123;50.118;10.272;2023-03-16T02:30:46;98106.41;;;0.08;70.45
47374;BME280;33123;50.118;10.272;2023-03-16T02:33:13;98097.03;;;0.07;71.11
47374;BME280;33123;50.118;10.272;2023-03-16T02:35:41;98102.22;;;0.07;70.68
47374;BME280;33123;50.118;10.272;2023-03-16T02:38:07;98098.00;;;0.06;70.43
47374;BME280;33123;50.118;10.272;2023-03-16T02:40:35;98092.81;;;0.06;70.82
47374;BME280;33123;50.118;10.272;2023-03-16T02:43:06;98085.84;;;0.06;72.28
47374;BME280;33123;50.118;10.272;2023-03-16T02:45:38;98092.66;;;0.07;71.96
47374;BME280;33123;50.118;10.272;2023-03-16T02:48:10;98099.63;;;0.07;71.07
47374;BME280;33123;50.118;10.272;2023-03-16T02:50:43;98099.63;;;0.07;70.78
47374;BME280;33123;50.118;10.272;2023-03-16T02:53:11;98106.72;;;0.05;71.32
47374;BME280;33123;50.118;10.272;2023-03-16T02:55:37;98100.75;;;0.04;70.61
47374;BME280;33123;50.118;10.272;2023-03-16T02:58:04;98103.50;;;0.03;70.49
47374;BME280;33123;50.118;10.272;2023-03-16T03:00:31;98108.69;;;0.03;70.93
47374;BME280;33123;50.118;10.272;2023-03-16T03:02:57;98121.66;;;0.03;69.99
47374;BME280;33123;50.118;10.272;2023-03-16T03:05:25;98120.03;;;0.02;70.65
47374;BME280;33123;50.118;10.272;2023-03-16T03:07:52;98129.75;;;-0.01;71.28
47374;BME280;33123;50.118;10.272;2023-03-16T03:10:18;98130.59;;;0.00;70.98
47374;BME280;33123;50.118;10.272;2023-03-16T03:12:46;98121.97;;;-0.01;71.26
47374;BME280;33123;50.118;10.272;2023-03-16T03:15:14;98123.75;;;-0.01;71.27
47374;BME280;33123;50.118;10.272;2023-03-16T03:17:41;98122.94;;;-0.02;71.66
47374;BME280;33123;50.118;10.272;2023-03-16T03:20:09;98113.41;;;-0.01;70.68
47374;BME280;33123;50.118;10.272;2023-03-16T03:22:41;98105.63;;;-0.01;70.53
47374;BME280;33123;50.118;10.272;2023-03-16T03:25:10;98099.81;;;-0.03;69.77
47374;BME280;33123;50.118;10.272;2023-03-16T03:27:38;98102.56;;;-0.05;70.25
47374;BME280;33123;50.118;10.272;2023-03-16T03:30:06;98099.50;;;-0.08;70.54
47374;BME280;33123;50.118;10.272;2023-03-16T03:32:33;98093.53;;;-0.09;70.60
47374;BME280;33123;50.118;10.272;2023-03-16T03:34:59;98089.47;;;-0.11;71.46
47374;BME280;33123;50.118;10.272;2023-03-16T03:37:26;98091.25;;;-0.12;71.11
47374;BME280;33123;50.118;10.272;2023-03-16T03:39:54;98082.53;;;-0.11;70.67
47374;BME280;33123;50.118;10.272;2023-03-16T03:42:21;98090.31;;;-0.11;71.42
47374;BME280;33123;50.118;10.272;2023-03-16T03:44:48;98086.72;;;-0.10;71.76
47374;BME280;33123;50.118;10.272;2023-03-16T03:47:15;98087.72;;;-0.11;71.12
47374;BME280;33123;50.118;10.272;2023-03-16T03:49:44;98083.34;;;-0.10;71.30
47374;BME280;33123;50.118;10.272;2023-03-16T03:52:11;98085.44;;;-0.14;71.16
47374;BME280;33123;50.118;10.272;2023-03-16T03:54:38;98086.06;;;-0.12;71.12
47374;BME280;33123;50.118;10.272;2023-03-16T03:57:06;98083.66;;;-0.13;70.95
47374;BME280;33123;50.118;10.272;2023-03-16T03:59:32;98085.44;;;-0.14;71.29
47374;BME280;33123;50.118;10.272;2023-03-16T04:02:05;98084.47;;;-0.13;71.25
47374;BME280;33123;50.118;10.272;2023-03-16T04:04:31;98083.66;;;-0.13;71.68
47374;BME280;33123;50.118;10.272;2023-03-16T04:06:59;98082.69;;;-0.12;72.49
47374;BME280;33123;50.118;10.272;2023-03-16T04:09:26;98083.16;;;-0.09;71.80
47374;BME280;33123;50.118;10.272;2023-03-16T04:11:52;98085.41;;;-0.06;72.33
47374;BME280;33123;50.118;10.272;2023-03-16T04:14:23;98071.81;;;-0.08;72.24
47374;BME280;33123;50.118;10.272;2023-03-16T04:16:49;98071.13;;;-0.02;71.22
47374;BME280;33123;50.118;10.272;2023-03-16T04:19:16;98073.09;;;-0.04;71.14
47374;BME280;33123;50.118;10.272;2023-03-16T04:21:42;98066.31;;;-0.05;71.05
47374;BME280;33123;50.118;10.272;2023-03-16T04:24:09;98076.66;;;-0.05;71.14
47374;BME280;33123;50.118;10.272;2023-03-16T04:26:39;98073.28;;;-0.05;70.75
47374;BME280;33123;50.118;10.272;2023-03-16T04:29:05;98071.63;;;-0.06;70.73
47374;BME280;33123;50.118;10.272;2023-03-16T04:31:33;98063.41;;;-0.10;71.17
47374;BME280;33123;50.118;10.272;2023-03-16T04:34:00;98066.63;;;-0.08;71.78
47374;BME280;33123;50.118;10.272;2023-03-16T04:36:26;98063.41;;;-0.10;71.30
47374;BME280;33123;50.118;10.272;2023-03-16T04:38:53;98065.03;;;-0.09;71.15
47374;BME280;33123;50.118;10.272;2023-03-16T04:41:20;98059.84;;;-0.09;70.82
47374;BME280;33123;50.118;10.272;2023-03-16T04:43:46;98063.41;;;-0.10;70.93
47374;BME280;33123;50.118;10.272;2023-03-16T04:46:13;98060.81;;;-0.10;71.03
47374;BME280;33123;50.118;10.272;2023-03-16T04:48:41;98034.00;;;-0.25;71.52
47374;BME280;33123;50.118;10.272;2023-03-16T04:51:08;98066.16;;;-0.11;71.47
47374;BME280;33123;50.118;10.272;2023-03-16T04:53:35;98054.06;;;-0.19;71.07
47374;BME280;33123;50.118;10.272;2023-03-16T04:56:01;98069.91;;;-0.14;71.52
47374;BME280;33123;50.118;10.272;2023-03-16T04:58:28;98053.94;;;-0.25;70.81
47374;BME280;33123;50.118;10.272;2023-03-16T05:00:55;98070.88;;;-0.15;72.03
47374;BME280;33123;50.118;10.272;2023-03-16T05:03:22;98071.34;;;-0.11;70.65
47374;BME280;33123;50.118;10.272;2023-03-16T05:05:50;98073.78;;;-0.10;70.35
47374;BME280;33123;50.118;10.272;2023-03-16T05:08:17;98078.97;;;-0.10;71.05
47374;BME280;33123;50.118;10.272;2023-03-16T05:10:43;98076.38;;;-0.10;71.14
47374;BME280;33123;50.118;10.272;2023-03-16T05:13:12;98074.56;;;-0.09;70.92
47374;BME280;33123;50.118;10.272;2023-03-16T05:15:39;98082.53;;;-0.11;71.24
47374;BME280;33123;50.118;10.272;2023-03-16T05:18:05;98078.97;;;-0.10;71.29
47374;BME280;33123;50.118;10.272;2023-03-16T05:20:32;98085.13;;;-0.11;71.30
47374;BME280;33123;50.118;10.272;2023-03-16T05:23:00;98088.34;;;-0.09;71.25
47374;BME280;33123;50.118;10.272;2023-03-16T05:25:27;98083.97;;;-0.08;70.69
47374;BME280;33123;50.118;10.272;2023-03-16T05:27:53;98084.94;;;-0.09;70.03
47374;BME280;33123;50.118;10.272;2023-03-16T05:30:21;98079.28;;;-0.13;69.99
47374;BME280;33123;50.118;10.272;2023-03-16T05:32:48;98070.88;;;-0.15;70.52
47374;BME280;33123;50.118;10.272;2023-03-16T05:35:15;98082.84;;;-0.14;71.31
47374;BME280;33123;50.118;10.272;2023-03-16T05:37:42;98054.09;;;-0.27;71.15
47374;BME280;33123;50.118;10.272;2023-03-16T05:40:12;98079.94;;;-0.11;71.18
47374;BME280;33123;50.118;10.272;2023-03-16T05:42:42;98087.56;;;-0.17;72.02
47374;BME280;33123;50.118;10.272;2023-03-16T05:45:10;98084.50;;;-0.21;73.30
47374;BME280;33123;50.118;10.272;2023-03-16T05:47:38;98082.84;;;-0.14;73.47
47374;BME280;33123;50.118;10.272;2023-03-16T05:50:06;98088.03;;;-0.14;72.93
47374;BME280;33123;50.118;10.272;2023-03-16T05:52:35;98077.34;;;-0.11;73.36
47374;BME280;33123;50.118;10.272;2023-03-16T05:55:03;98083.47;;;-0.04;73.74
47374;BME280;33123;50.118;10.272;2023-03-16T05:57:31;98076.63;;;0.04;73.21
47374;BME280;33123;50.118;10.272;2023-03-16T05:59:59;98078.53;;;0.10;73.97
47374;BME280;33123;50.118;10.272;2023-03-16T06:02:26;98080.91;;;0.19;73.93
47374;BME280;33123;50.118;10.272;2023-03-16T06:04:53;98071.16;;;0.21;73.39
47374;BME280;33123;50.118;10.272;2023-03-16T06:07:19;98081.31;;;0.39;72.96
47374;BME280;33123;50.118;10.272;2023-03-16T06:09:46;98090.91;;;0.53;72.97
47374;BME280;33123;50.118;10.272;2023-03-16T06:12:13;98103.16;;;0.68;72.88
47374;BME280;33123;50.118;10.272;2023-03-16T06:14:41;98105.78;;;0.83;72.83
47374;BME280;33123;50.118;10.272;2023-03-16T06:17:07;98093.84;;;0.96;72.30
47374;BME280;33123;50.118;10.272;2023-03-16T06:19:34;98099.25;;;1.10;72.18
47374;BME280;33123;50.118;10.272;2023-03-16T06:22:01;98095.50;;;1.12;71.69
47374;BME280;33123;50.118;10.272;2023-03-16T06:24:27;98101.41;;;1.21;70.68
47374;BME280;33123;50.118;10.272;2023-03-16T06:26:54;98102.16;;;1.29;70.54
47374;BME280;33123;50.118;10.272;2023-03-16T06:29:21;98102.88;;;1.38;71.14
47374;BME280;33123;50.118;10.272;2023-03-16T06:31:49;98109.00;;;1.45;70.66
47374;BME280;33123;50.118;10.272;2023-03-16T06:34:16;98103.97;;;1.58;70.93
47374;BME280;33123;50.118;10.272;2023-03-16T06:36:43;98100.03;;;1.77;70.31
47374;BME280;33123;50.118;10.272;2023-03-16T06:39:10;98094.84;;;1.92;69.73
47374;BME280;33123;50.118;10.272;2023-03-16T06:41:38;98077.16;;;2.02;68.76
47374;BME280;33123;50.118;10.272;2023-03-16T06:44:07;98099.41;;;2.41;68.56
47374;BME280;33123;50.118;10.272;2023-03-16T06:46:34;98100.53;;;2.53;67.32
47374;BME280;33123;50.118;10.272;2023-03-16T06:49:02;98106.88;;;2.87;66.61
47374;BME280;33123;50.118;10.272;2023-03-16T06:51:29;98102.91;;;3.12;66.25
47374;BME280;33123;50.118;10.272;2023-03-16T06:53:56;98108.63;;;3.57;65.49
47374;BME280;33123;50.118;10.272;2023-03-16T06:56:23;98108.06;;;4.03;66.32
47374;BME280;33123;50.118;10.272;2023-03-16T06:58:52;98109.88;;;4.57;62.64
47374;BME280;33123;50.118;10.272;2023-03-16T07:01:19;98116.59;;;5.19;62.07
47374;BME280;33123;50.118;10.272;2023-03-16T07:03:47;98114.13;;;5.84;60.74
47374;BME280;33123;50.118;10.272;2023-03-16T07:06:16;98116.88;;;6.54;58.52
47374;BME280;33123;50.118;10.272;2023-03-16T07:08:42;98107.56;;;7.21;56.16
47374;BME280;33123;50.118;10.272;2023-03-16T07:11:12;98120.22;;;7.74;55.05
47374;BME280;33123;50.118;10.272;2023-03-16T07:13:39;98128.72;;;8.13;52.99
47374;BME280;33123;50.118;10.272;2023-03-16T07:16:06;98134.97;;;8.49;53.00
47374;BME280;33123;50.118;10.272;2023-03-16T07:18:33;98129.66;;;8.85;52.24
47374;BME280;33123;50.118;10.272;2023-03-16T07:21:02;98129.84;;;9.14;51.36
47374;BME280;33123;50.118;10.272;2023-03-16T07:23:30;98134.69;;;9.40;51.22
47374;BME280;33123;50.118;10.272;2023-03-16T07:25:56;98132.53;;;9.61;48.48
47374;BME280;33123;50.118;10.272;2023-03-16T07:28:23;98127.94;;;9.91;48.88
47374;BME280;33123;50.118;10.272;2023-03-16T07:30:50;98128.56;;;10.22;48.07
47374;BME280;33123;50.118;10.272;2023-03-16T07:33:17;98129.84;;;10.60;46.71
47374;BME280;33123;50.118;10.272;2023-03-16T07:35:45;98119.91;;;11.07;45.93
47374;BME280;33123;50.118;10.272;2023-03-16T07:38:11;98124.78;;;11.49;46.29
47374;BME280;33123;50.118;10.272;2023-03-16T07:40:39;98116.69;;;11.89;44.36
47374;BME280;33123;50.118;10.272;2023-03-16T07:43:06;98114.94;;;12.17;44.22
47374;BME280;33123;50.118;10.272;2023-03-16T07:45:33;98107.34;;;12.47;44.25
47374;BME280;33123;50.118;10.272;2023-03-16T07:48:00;98112.16;;;12.77;43.33
47374;BME280;33123;50.118;10.272;2023-03-16T07:50:26;98118.75;;;13.02;42.39
47374;BME280;33123;50.118;10.272;2023-03-16T07:52:53;98114.13;;;13.19;40.96
47374;BME280;33123;50.118;10.272;2023-03-16T07:55:20;98118.22;;;13.32;40.06
47374;BME280;33123;50.118;10.272;2023-03-16T07:57:48;98116.81;;;13.56;39.44
47374;BME280;33123;50.118;10.272;2023-03-16T08:00:15;98125.97;;;13.43;38.99
47374;BME280;33123;50.118;10.272;2023-03-16T08:02:44;98132.72;;;13.24;40.37
47374;BME280;33123;50.118;10.272;2023-03-16T08:05:11;98126.47;;;13.08;40.01
47374;BME280;33123;50.118;10.272;2023-03-16T08:07:39;98129.00;;;12.98;39.99
47374;BME280;33123;50.118;10.272;2023-03-16T08:10:07;98126.38;;;12.98;42.15
47374;BME280;33123;50.118;10.272;2023-03-16T08:12:33;98125.47;;;13.14;40.18
47374;BME280;33123;50.118;10.272;2023-03-16T08:15:02;98121.66;;;13.00;39.36
47374;BME280;33123;50.118;10.272;2023-03-16T08:17:30;98127.75;;;13.28;39.92
47374;BME280;33123;50.118;10.272;2023-03-16T08:19:57;98124.69;;;13.46;40.56
47374;BME280;33123;50.118;10.272;2023-03-16T08:22:24;98130.38;;;13.65;40.44
47374;BME280;33123;50.118;10.272;2023-03-16T08:24:51;98138.13;;;13.71;38.09
47374;BME280;33123;50.118;10.272;2023-03-16T08:27:18;98122.34;;;13.92;39.23
47374;BME280;33123;50.118;10.272;2023-03-16T08:29:45;98132.00;;;14.13;39.31
47374;BME280;33123;50.118;10.272;2023-03-16T08:32:13;98132.31;;;14.22;37.54
47374;BME280;33123;50.118;10.272;2023-03-16T08:34:40;98136.53;;;14.18;36.74
47374;BME280;33123;50.118;10.272;2023-03-16T08:37:06;98128.88;;;14.32;37.04
47374;BME280;33123;50.118;10.272;2023-03-16T08:39:34;98138.47;;;14.43;36.51
47374;BME280;33123;50.118;10.272;2023-03-16T08:42:00;98126.97;;;14.17;37.35
47374;BME280;33123;50.118;10.272;2023-03-16T08:44:30;98137.03;;;14.15;37.18
47374;BME280;33123;50.118;10.272;2023-03-16T08:46:57;98137.03;;;14.15;37.00
47374;BME280;33123;50.118;10.272;2023-03-16T08:49:25;98133.00;;;14.02;37.09
47374;BME280;33123;50.118;10.272;2023-03-16T08:51:53;98129.44;;;13.86;38.25
47374;BME280;33123;50.118;10.272;2023-03-16T08:54:19;98122.28;;;13.82;37.19
47374;BME280;33123;50.118;10.272;2023-03-16T08:56:46;98120.66;;;13.76;36.90
47374;BME280;33123;50.118;10.272;2023-03-16T08:59:15;98121.75;;;13.15;37.20
47374;BME280;33123;50.118;10.272;2023-03-16T09:01:42;98123.88;;;13.13;37.90
47374;BME280;33123;50.118;10.272;2023-03-16T09:04:09;98122.66;;;12.94;37.98
47374;BME280;33123;50.118;10.272;2023-03-16T09:06:37;98108.25;;;12.85;38.37
47374;BME280;33123;50.118;10.272;2023-03-16T09:09:04;98126.63;;;13.24;39.04
47374;BME280;33123;50.118;10.272;2023-03-16T09:11:31;98118.03;;;13.38;37.64
47374;BME280;33123;50.118;10.272;2023-03-16T09:13:58;98110.44;;;13.52;39.02
47374;BME280;33123;50.118;10.272;2023-03-16T09:16:25;98115.22;;;13.97;38.63
47374;BME280;33123;50.118;10.272;2023-03-16T09:18:52;98109.09;;;13.97;36.91
47374;BME280;33123;50.118;10.272;2023-03-16T09:21:20;98115.31;;;14.18;36.22
47374;BME280;33123;50.118;10.272;2023-03-16T09:23:48;98105.00;;;14.21;35.53
47374;BME280;33123;50.118;10.272;2023-03-16T09:26:15;98116.25;;;14.49;36.80
47374;BME280;33123;50.118;10.272;2023-03-16T09:28:42;98110.13;;;14.48;35.36
47374;BME280;33123;50.118;10.272;2023-03-16T09:31:15;98112.19;;;14.36;35.53
47374;BME280;33123;50.118;10.272;2023-03-16T09:33:43;98104.34;;;14.62;36.25
47374;BME280;33123;50.118;10.272;2023-03-16T09:36:11;98088.28;;;14.16;35.29
47374;BME280;33123;50.118;10.272;2023-03-16T09:38:38;98093.88;;;14.30;35.89
47374;BME280;33123;50.118;10.272;2023-03-16T09:41:09;98102.63;;;14.25;36.04
47374;BME280;33123;50.118;10.272;2023-03-16T09:43:50;98100.19;;;14.18;35.82
47374;BME280;33123;50.118;10.272;2023-03-16T09:46:25;98090.09;;;14.15;36.52
47374;BME280;33123;50.118;10.272;2023-03-16T09:48:53;98091.13;;;14.09;37.14
47374;BME280;33123;50.118;10.272;2023-03-16T09:51:30;98085.97;;;14.40;36.05
47374;BME280;33123;50.118;10.272;2023-03-16T09:54:02;98084.81;;;14.10;36.37
47374;BME280;33123;50.118;10.272;2023-03-16T09:56:51;98083.81;;;14.37;37.39
47374;BME280;33123;50.118;10.272;2023-03-16T10:06:06;98074.75;;;13.65;34.42
47374;BME280;33123;50.118;10.272;2023-03-16T10:08:39;98068.97;;;13.31;34.94
47374;BME280;33123;50.118;10.272;2023-03-16T10:11:24;98064.34;;;13.16;35.53
47374;BME280;33123;50.118;10.272;2023-03-16T10:13:55;98055.81;;;13.09;36.44
47374;BME280;33123;50.118;10.272;2023-03-16T10:16:26;98064.88;;;12.86;35.92
47374;BME280;33123;50.118;10.272;2023-03-16T10:18:59;98062.34;;;12.96;35.90
47374;BME280;33123;50.118;10.272;2023-03-16T10:21:30;98056.69;;;13.19;36.11
47374;BME280;33123;50.118;10.272;2023-03-16T10:23:59;98061.25;;;13.61;36.40
47374;BME280;33123;50.118;10.272;2023-03-16T10:26:32;98064.47;;;13.73;34.84
47374;BME280;33123;50.118;10.272;2023-03-16T10:29:08;98058.38;;;14.36;35.73
47374;BME280;33123;50.118;10.272;2023-03-16T10:31:38;98045.75;;;14.68;34.47
47374;BME280;33123;50.118;10.272;2023-03-16T10:34:06;98056.38;;;14.89;33.05
47374;BME280;33123;50.118;10.272;2023-03-16T10:36:38;98041.41;;;14.42;33.20
47374;BME280;33123;50.118;10.272;2023-03-16T10:39:07;98059.69;;;14.43;33.59
47374;BME280;33123;50.118;10.272;2023-03-16T10:41:37;98062.59;;;14.21;34.02
47374;BME280;33123;50.118;10.272;2023-03-16T10:44:11;98067.16;;;14.46;34.24
47374;BME280;33123;50.118;10.272;2023-03-16T10:46:41;98068.84;;;14.00;35.23
47374;BME280;33123;50.118;10.272;2023-03-16T10:49:21;98061.94;;;14.67;35.55
47374;BME280;33123;50.118;10.272;2023-03-16T10:51:51;98059.78;;;14.69;33.59
47374;BME280;33123;50.118;10.272;2023-03-16T10:54:26;98047.59;;;14.93;33.03
47374;BME280;33123;50.118;10.272;2023-03-16T10:56:53;98066.44;;;14.61;32.64
47374;BME280;33123;50.118;10.272;2023-03-16T10:59:28;98056.31;;;14.58;33.18
47374;BME280;33123;50.118;10.272;2023-03-16T11:01:56;98051.94;;;14.11;33.21
47374;BME280;33123;50.118;10.272;2023-03-16T11:04:24;98039.72;;;14.05;33.36
47374;BME280;33123;50.118;10.272;2023-03-16T11:06:53;98018.00;;;14.13;34.32
47374;BME280;33123;50.118;10.272;2023-03-16T11:09:23;98020.75;;;14.44;33.83
47374;BME280;33123;50.118;10.272;2023-03-16T11:11:50;98043.44;;;14.09;34.16
47374;BME280;33123;50.118;10.272;2023-03-16T11:14:20;98035.91;;;14.59;34.78
47374;BME280;33123;50.118;10.272;2023-03-16T11:16:55;98030.34;;;14.65;34.19
47374;BME280;33123;50.118;10.272;2023-03-16T11:19:27;98033.28;;;14.84;33.73
47374;BME280;33123;50.118;10.272;2023-03-16T11:21:59;98028.41;;;14.40;31.12
47374;BME280;33123;50.118;10.272;2023-03-16T11:24:33;98027.34;;;14.36;32.82
47374;BME280;33123;50.118;10.272;2023-03-16T11:27:10;98004.97;;;13.96;33.93
47374;BME280;33123;50.118;10.272;2023-03-16T11:29:48;98026.50;;;14.10;33.98
47374;BME280;33123;50.118;10.272;2023-03-16T11:32:25;98036.34;;;14.30;33.17
47374;BME280;33123;50.118;10.272;2023-03-16T11:34:52;98035.28;;;14.31;33.82
47374;BME280;33123;50.118;10.272;2023-03-16T11:37:27;98023.13;;;14.45;33.51
47374;BME280;33123;50.118;10.272;2023-03-16T11:40:02;97975.88;;;14.12;33.35
47374;BME280;33123;50.118;10.272;2023-03-16T11:42:49;98024.09;;;14.09;33.06
47374;BME280;33123;50.118;10.272;2023-03-16T11:45:27;98019.34;;;14.21;34.51
47374;BME280;33123;50.118;10.272;2023-03-16T11:48:18;97990.66;;;13.97;35.09
47374;BME280;33123;50.118;10.272;2023-03-16T11:51:00;97993.28;;;13.87;34.34
47374;BME280;33123;50.118;10.272;2023-03-16T11:53:37;97988.13;;;13.55;34.12
47374;BME280;33123;50.118;10.272;2023-03-16T11:56:15;97991.56;;;13.56;34.59
47374;BME280;33123;50.118;10.272;2023-03-16T12:01:57;97980.97;;;13.13;33.61
47374;BME280;33123;50.118;10.272;2023-03-16T12:04:42;97978.44;;;12.59;34.63
47374;BME280;33123;50.118;10.272;2023-03-16T12:10:07;97964.28;;;12.43;34.46
47374;BME280;33123;50.118;10.272;2023-03-16T12:12:52;97949.06;;;12.24;35.38
47374;BME280;33123;50.118;10.272;2023-03-16T12:15:29;97979.09;;;12.72;34.81
47374;BME280;33123;50.118;10.272;2023-03-16T12:18:00;97955.41;;;12.92;34.58
47374;BME280;33123;50.118;10.272;2023-03-16T12:20:31;97942.34;;;13.17;34.83
47374;BME280;33123;50.118;10.272;2023-03-16T12:23:03;97952.09;;;13.07;35.03
47374;BME280;33123;50.118;10.272;2023-03-16T12:25:34;97926.94;;;12.67;34.55
47374;BME280;33123;50.118;10.272;2023-03-16T12:28:05;97944.72;;;12.77;35.65
47374;BME280;33123;50.118;10.272;2023-03-16T12:30:44;97948.91;;;12.67;34.65
47374;BME280;33123;50.118;10.272;2023-03-16T12:33:21;97959.69;;;12.61;34.87
47374;BME280;33123;50.118;10.272;2023-03-16T12:36:00;97964.47;;;12.64;34.07
47374;BME280;33123;50.118;10.272;2023-03-16T12:38:36;97957.44;;;12.48;35.18
47374;BME280;33123;50.118;10.272;2023-03-16T12:41:18;97955.47;;;12.65;35.50
47374;BME280;33123;50.118;10.272;2023-03-16T12:43:58;97956.44;;;12.54;34.29
47374;BME280;33123;50.118;10.272;2023-03-16T12:46:31;97944.22;;;12.48;34.34
47374;BME280;33123;50.118;10.272;2023-03-16T12:49:04;97942.84;;;12.40;35.86
47374;BME280;33123;50.118;10.272;2023-03-16T12:51:33;97951.53;;;12.08;35.15
47374;BME280;33123;50.118;10.272;2023-03-16T12:54:01;97935.59;;;11.98;35.56
47374;BME280;33123;50.118;10.272;2023-03-16T12:56:31;97921.47;;;11.87;35.20
47374;BME280;33123;50.118;10.272;2023-03-16T12:59:00;97925.97;;;11.87;35.87
47374;BME280;33123;50.118;10.272;2023-03-16T13:01:29;97912.47;;;11.83;35.55
47374;BME280;33123;50.118;10.272;2023-03-16T13:04:04;97922.28;;;11.66;36.20
47374;BME280;33123;50.118;10.272;2023-03-16T13:06:35;97926.28;;;11.47;36.74
47374;BME280;33123;50.118;10.272;2023-03-16T13:09:04;97921.59;;;11.54;36.63
47374;BME280;33123;50.118;10.272;2023-03-16T13:11:42;97905.88;;;11.42;35.90
47374;BME280;33123;50.118;10.272;2023-03-16T13:14:15;97917.75;;;11.40;35.70
47374;BME280;33123;50.118;10.272;2023-03-16T13:16:42;97903.25;;;11.20;36.28
47374;BME280;33123;50.118;10.272;2023-03-16T13:19:27;97870.03;;;11.02;35.38